Time;durP1;ratioP1;P1;durP2;ratioP2;P2;SDS_P1;SDS_P2;PMS_P1;PMS_P2;Temp;Humidity;BMP_temperature;BMP_pressure;BME280_temperature;BME280_humidity;BME280_pressure;Samples;Min_cycle;Max_cycle;Signal;HPM_P1;HPM_P2
2022/05/27 00:00:49;;;;;;;;;;;;;;;;;;5015938;28;19953;-76
2022/05/27 00:03:16;;;;;;;;;;;;;;;;;;5014341;28;19921;-76
2022/05/27 00:05:43;;;;;;;;;;;;;;;;;;5015227;28;19921;-78
2022/05/27 00:08:09;;;;;;;;;;;;;;;;;;5014815;28;19925;-79
2022/05/27 00:10:36;;;;;;;;;;;;;;;;;;5015145;28;19928;-78
2022/05/27 00:13:03;;;;;;;;;;;;;;;;;;5014663;28;19925;-77
2022/05/27 00:15:31;;;;;;;;;;;;;;;;;;5015676;28;20352;-77
2022/05/27 00:17:58;;;;;;;;;;;;;;;;;;5025518;28;19922;-76
2022/05/27 00:20:24;;;;;;;;;;;;;;;;;;5029069;28;19921;-76
2022/05/27 00:22:51;;;;;;;;;;;;;;;;;;5028011;28;19921;-77
2022/05/27 00:25:19;;;;;;;;;;;;;;;;;;5015695;28;19921;-76
2022/05/27 00:27:45;;;;;;;;;;;;;;;;;;5015169;28;19968;-77
2022/05/27 00:30:12;;;;;;;;;;;;;;;;;;5014865;28;19979;-77
2022/05/27 00:32:40;;;;;;;;;;;;;;;;;;5015246;28;19921;-78
2022/05/27 00:35:08;;;;;;;;;;;;;;;;;;5015772;28;19921;-78
2022/05/27 00:37:34;;;;;;;;;;;;;;;;;;5015378;28;19968;-77
2022/05/27 00:40:01;;;;;;;;;;;;;;;;;;5015295;28;19921;-78
2022/05/27 00:42:27;;;;;;;;;;;;;;;;;;5014275;28;20435;-78
2022/05/27 00:44:54;;;;;;;;;;;;;;;;;;5014926;28;19921;-78
2022/05/27 00:47:21;;;;;;;;;;;;;;;;;;5014160;28;19948;-78
2022/05/27 00:49:52;;;;;;;;;;;;;;;;;;5014082;28;20357;-77
2022/05/27 00:52:20;;;;;;;;;;;;;;;;;;5013945;28;19921;-78
2022/05/27 00:54:47;;;;;;;;;;;;;;;;;;5013675;28;19922;-77
2022/05/27 00:57:15;;;;;;;;;;;;;;;;;;5017282;28;19921;-79
2022/05/27 00:59:44;;;;;;;;;;;;;;;;;;5016393;28;19929;-79
2022/05/27 01:02:10;;;;;;;;;;;;;;;;;;5016260;28;20012;-78
2022/05/27 01:04:37;;;;;;;;;;;;;;;;;;5016797;28;20399;-78
2022/05/27 01:07:05;;;;;;;;;;;;;;;;;;5017020;28;19921;-79
2022/05/27 01:09:34;;;;;;;;;;;;;;;;;;5017357;28;19979;-78
2022/05/27 01:12:16;;;;;;;;;;;;;;;;;;5016518;28;19971;-78
2022/05/27 01:14:48;;;;;;;;;;;;;;;;;;5016544;28;19921;-78
2022/05/27 01:17:20;;;;;;;;;;;;;;;;;;5016660;28;19925;-78
2022/05/27 01:22:58;;;;;;;;;;;;;;;;;;5013365;28;19927;-79
2022/05/27 01:25:33;;;;;;;;;;;;;;;;;;5016998;28;19921;-78
2022/05/27 01:28:17;;;;;;;;;;;;;;;;;;5015889;28;20492;-78
2022/05/27 01:30:48;;;;;;;;;;;;;;;;;;5012731;28;20372;-78
2022/05/27 01:33:31;;;;;;;;;;;;;;;;;;5013005;28;19928;-79
2022/05/27 01:36:03;;;;;;;;;;;;;;;;;;5013315;28;19921;-78
2022/05/27 01:38:32;;;;;;;;;;;;;;;;;;5012897;28;20380;-79
2022/05/27 01:41:03;;;;;;;;;;;;;;;;;;5012695;28;20181;-79
2022/05/27 01:43:35;;;;;;;;;;;;;;;;;;5013026;28;19926;-79
2022/05/27 01:46:08;;;;;;;;;;;;;;;;;;5013384;28;19921;-78
2022/05/27 01:48:37;;;;;;;;;;;;;;;;;;5014049;28;19925;-78
2022/05/27 01:51:07;;;;;;;;;;;;;;;;;;5013192;28;19925;-78
2022/05/27 01:53:37;;;;;;;;;;;;;;;;;;5013130;28;19968;-79
2022/05/27 01:56:07;;;;;;;;;;;;;;;;;;5013121;28;19921;-78
2022/05/27 01:58:36;;;;;;;;;;;;;;;;;;5004773;28;19922;-79
2022/05/27 02:01:05;;;;;;;;;;;;;;;;;;4993687;28;19922;-78
2022/05/27 02:03:34;;;;;;;;;;;;;;;;;;4993201;28;19976;-78
2022/05/27 02:06:04;;;;;;;;;;;;;;;;;;4993736;28;19922;-78
2022/05/27 02:08:33;;;;;;;;;;;;;;;;;;4993710;28;19925;-78
2022/05/27 02:11:02;;;;;;;;;;;;;;;;;;4993023;28;19925;-79
2022/05/27 02:13:30;;;;;;;;;;;;;;;;;;4993187;28;19922;-77
2022/05/27 02:15:57;;;;;;;;;;;;;;;;;;4993329;28;19922;-78
2022/05/27 02:18:27;;;;;;;;;;;;;;;;;;4994184;28;19929;-78
2022/05/27 02:20:55;;;;;;;;;;;;;;;;;;4993751;28;20523;-78
2022/05/27 02:23:27;;;;;;;;;;;;;;;;;;4994657;28;19933;-77
2022/05/27 02:25:54;;;;;;;;;;;;;;;;;;4996467;28;19921;-78
2022/05/27 02:28:23;;;;;;;;;;;;;;;;;;4999627;28;19922;-78
2022/05/27 02:30:51;;;;;;;;;;;;;;;;;;5005054;28;19929;-77
2022/05/27 02:36:06;;;;;;;;;;;;;;;;;;5006101;28;19928;-78
2022/05/27 02:38:33;;;;;;;;;;;;;;;;;;4998217;28;19922;-78
2022/05/27 02:41:03;;;;;;;;;;;;;;;;;;4997755;28;19921;-78
2022/05/27 02:43:38;;;;;;;;;;;;;;;;;;4998384;28;19976;-77
2022/05/27 02:46:07;;;;;;;;;;;;;;;;;;4998522;28;19925;-78
2022/05/27 02:48:37;;;;;;;;;;;;;;;;;;4998400;28;19961;-79
2022/05/27 02:51:06;;;;;;;;;;;;;;;;;;4998565;28;19929;-79
2022/05/27 02:53:37;;;;;;;;;;;;;;;;;;4998865;28;19926;-79
2022/05/27 02:56:08;;;;;;;;;;;;;;;;;;5000314;28;19926;-78
2022/05/27 02:58:34;;;;;;;;;;;;;;;;;;5006780;28;20269;-78
2022/05/27 03:01:01;;;;;;;;;;;;;;;;;;5017619;28;19929;-77
2022/05/27 03:03:28;;;;;;;;;;;;;;;;;;5017072;28;19925;-78
2022/05/27 03:06:03;;;;;;;;;;;;;;;;;;5018161;28;19921;-79
2022/05/27 03:08:34;;;;;;;;;;;;;;;;;;5017604;28;19925;-78
2022/05/27 03:11:04;;;;;;;;;;;;;;;;;;5027350;28;19925;-76
2022/05/27 03:13:41;;;;;;;;;;;;;;;;;;5029242;28;19979;-76
2022/05/27 03:16:12;;;;;;;;;;;;;;;;;;5028147;28;19921;-76
2022/05/27 03:18:47;;;;;;;;;;;;;;;;;;5023755;28;19922;-77
2022/05/27 03:21:16;;;;;;;;;;;;;;;;;;5018199;28;19975;-79
2022/05/27 03:24:03;;;;;;;;;;;;;;;;;;5018092;28;19967;-79
2022/05/27 03:26:33;;;;;;;;;;;;;;;;;;5018187;28;19989;-78
2022/05/27 03:29:04;;;;;;;;;;;;;;;;;;5018517;28;20181;-78
2022/05/27 03:31:32;;;;;;;;;;;;;;;;;;5018515;28;19929;-78
2022/05/27 03:34:05;;;;;;;;;;;;;;;;;;5017952;28;19944;-77
2022/05/27 03:36:35;;;;;;;;;;;;;;;;;;5023619;28;19921;-78
2022/05/27 03:39:11;;;;;;;;;;;;;;;;;;5023773;28;19975;-79
2022/05/27 03:41:41;;;;;;;;;;;;;;;;;;5024764;28;19922;-78
2022/05/27 03:44:07;;;;;;;;;;;;;;;;;;5023317;28;20269;-80
2022/05/27 03:46:35;;;;;;;;;;;;;;;;;;5019017;28;20288;-79
2022/05/27 03:49:03;;;;;;;;;;;;;;;;;;5019788;28;19926;-79
2022/05/27 03:51:30;;;;;;;;;;;;;;;;;;5019248;28;19926;-78
2022/05/27 03:54:06;;;;;;;;;;;;;;;;;;5019815;28;19925;-79
2022/05/27 03:56:35;;;;;;;;;;;;;;;;;;5020524;28;19905;-79
2022/05/27 03:59:02;;;;;;;;;;;;;;;;;;5005661;28;20356;-78
2022/05/27 04:01:30;;;;;;;;;;;;;;;;;;4997011;28;19922;-78
2022/05/27 04:03:57;;;;;;;;;;;;;;;;;;4996756;28;20301;-78
2022/05/27 04:06:23;;;;;;;;;;;;;;;;;;4997223;28;20321;-78
2022/05/27 04:08:50;;;;;;;;;;;;;;;;;;4998039;28;19926;-78
2022/05/27 04:11:17;;;;;;;;;;;;;;;;;;4995291;28;19968;-76
2022/05/27 04:13:44;;;;;;;;;;;;;;;;;;4995620;28;19925;-77
2022/05/27 04:16:11;;;;;;;;;;;;;;;;;;4996067;28;19976;-77
2022/05/27 04:18:38;;;;;;;;;;;;;;;;;;4995617;28;19925;-79
2022/05/27 04:21:04;;;;;;;;;;;;;;;;;;4994825;28;19976;-78
2022/05/27 04:23:31;;;;;;;;;;;;;;;;;;4995497;28;20388;-77
2022/05/27 04:25:57;;;;;;;;;;;;;;;;;;4995346;28;20449;-77
2022/05/27 04:28:24;;;;;;;;;;;;;;;;;;4995493;28;19976;-77
2022/05/27 04:30:52;;;;;;;;;;;;;;;;;;4994719;28;19925;-79
2022/05/27 04:33:19;;;;;;;;;;;;;;;;;;5023209;23;20039;-59
2022/05/27 04:35:45;;;;;;;;;;;;;;;;;;5013824;28;19921;-59
2022/05/27 04:38:12;;;;;;;;;;;;;;;;;;5014552;28;20329;-60
2022/05/27 04:40:39;;;;;;;;;;;;;;;;;;5013766;28;19922;-59
2022/05/27 04:43:06;;;;;;;;;;;;;;;;;;5013898;28;19921;-60
2022/05/27 04:45:33;;;;;;;;;;;;;;;;;;5013867;28;20012;-60
2022/05/27 04:48:01;;;;;;;;;;;;;;;;;;5013825;28;19925;-60
2022/05/27 04:50:28;;;;;;;;;;;;;;;;;;5013426;28;20286;-60
2022/05/27 04:52:55;;;;;;;;;;;;;;;;;;5013362;28;19968;-60
2022/05/27 04:55:22;;;;;;;;;;;;;;;;;;5013753;28;20012;-58
2022/05/27 04:57:51;;;;;;;;;;;;;;;;;;5013785;28;20374;-62
2022/05/27 05:00:19;;;;;;;;;;;;;;;;;;5013415;28;19927;-60
2022/05/27 05:02:46;;;;;;;;;;;;;;;;;;5013437;28;19927;-60
2022/05/27 05:05:16;;;;;;;;;;;;;;;;;;5013590;28;19922;-61
2022/05/27 05:07:45;;;;;;;;;;;;;;;;;;5013640;28;19921;-60
2022/05/27 05:10:12;;;;;;;;;;;;;;;;;;5013498;28;19926;-59
2022/05/27 05:12:39;;;;;;;;;;;;;;;;;;5013928;28;20382;-60
2022/05/27 05:15:06;;;;;;;;;;;;;;;;;;5013842;28;20015;-61
2022/05/27 05:17:33;;;;;;;;;;;;;;;;;;5013350;28;20346;-60
2022/05/27 05:19:59;;;;;;;;;;;;;;;;;;5013629;28;19921;-59
2022/05/27 05:22:27;;;;;;;;;;;;;;;;;;5012974;28;19921;-59
2022/05/27 05:24:54;;;;;;;;;;;;;;;;;;5013276;28;19928;-62
2022/05/27 05:27:21;;;;;;;;;;;;;;;;;;5013241;28;19932;-60
2022/05/27 05:29:47;;;;;;;;;;;;;;;;;;5013070;28;19932;-59
2022/05/27 05:32:14;;;;;;;;;;;;;;;;;;5012898;28;19921;-60
2022/05/27 05:34:41;;;;;;;;;;;;;;;;;;5013221;28;19925;-59
2022/05/27 05:37:08;;;;;;;;;;;;;;;;;;5012813;28;19921;-59
2022/05/27 05:39:37;;;;;;;;;;;;;;;;;;5012881;28;19921;-59
2022/05/27 05:42:06;;;;;;;;;;;;;;;;;;5012839;28;19964;-58
2022/05/27 05:44:33;;;;;;;;;;;;;;;;;;5013059;28;19921;-61
2022/05/27 05:47:00;;;;;;;;;;;;;;;;;;5013030;28;19980;-60
2022/05/27 05:49:27;;;;;;;;;;;;;;;;;;5012795;28;19921;-60
2022/05/27 05:51:54;;;;;;;;;;;;;;;;;;5012389;28;20029;-59
2022/05/27 05:54:21;;;;;;;;;;;;;;;;;;5013196;28;19948;-60
2022/05/27 05:56:49;;;;;;;;;;;;;;;;;;5012870;28;20275;-60
2022/05/27 05:59:17;;;;;;;;;;;;;;;;;;5012981;28;20004;-60
2022/05/27 06:01:44;;;;;;;;;;;;;;;;;;5011659;28;20375;-58
2022/05/27 06:04:11;;;;;;;;;;;;;;;;;;5013480;28;20370;-58
2022/05/27 06:06:38;;;;;;;;;;;;;;;;;;5013013;28;19922;-60
2022/05/27 06:09:06;;;;;;;;;;;;;;;;;;5013636;28;20378;-58
2022/05/27 06:11:32;;;;;;;;;;;;;;;;;;5013389;28;19940;-59
2022/05/27 06:14:00;;;;;;;;;;;;;;;;;;5012603;28;19921;-58
2022/05/27 06:16:27;;;;;;;;;;;;;;;;;;5012614;28;20275;-60
2022/05/27 06:18:54;;;;;;;;;;;;;;;;;;5012854;28;19925;-57
2022/05/27 06:21:21;;;;;;;;;;;;;;;;;;5012677;28;19921;-59
2022/05/27 06:23:47;;;;;;;;;;;;;;;;;;5012751;28;19921;-60
2022/05/27 06:26:14;;;;;;;;;;;;;;;;;;5012626;28;19948;-60
2022/05/27 06:34:26;;;;;;;;;;;;;;;;;;5012632;28;19928;-58
2022/05/27 06:36:54;;;;;;;;;;;;;;;;;;5012834;28;19921;-59
2022/05/27 06:39:21;;;;;;;;;;;;;;;;;;5012682;28;19925;-61
2022/05/27 06:41:48;;;;;;;;;;;;;;;;;;5012153;28;19928;-59
2022/05/27 06:44:15;;;;;;;;;;;;;;;;;;5012418;28;19927;-60
2022/05/27 06:46:43;;;;;;;;;;;;;;;;;;5012857;28;19926;-59
2022/05/27 06:49:10;;;;;;;;;;;;;;;;;;5012603;28;19925;-59
2022/05/27 06:51:38;;;;;;;;;;;;;;;;;;5012840;28;20321;-60
2022/05/27 06:54:06;;;;;;;;;;;;;;;;;;5013070;28;19929;-59
2022/05/27 06:56:35;;;;;;;;;;;;;;;;;;5012739;28;19928;-59
2022/05/27 06:59:01;;;;;;;;;;;;;;;;;;5012372;28;20024;-59
2022/05/27 07:01:28;;;;;;;;;;;;;;;;;;5011780;28;19921;-58
2022/05/27 07:03:57;;;;;;;;;;;;;;;;;;5012407;28;19921;-60
2022/05/27 07:06:24;;;;;;;;;;;;;;;;;;5012215;28;19921;-58
2022/05/27 07:08:51;;;;;;;;;;;;;;;;;;5012312;28;19931;-57
2022/05/27 07:11:18;;;;;;;;;;;;;;;;;;5012167;28;19921;-57
2022/05/27 07:13:44;;;;;;;;;;;;;;;;;;5014070;28;19943;-59
2022/05/27 07:16:11;;;;;;;;;;;;;;;;;;5015942;28;19929;-59
2022/05/27 07:18:38;;;;;;;;;;;;;;;;;;5016215;28;19921;-59
2022/05/27 07:21:07;;;;;;;;;;;;;;;;;;5015583;28;19921;-60
2022/05/27 07:23:34;;;;;;;;;;;;;;;;;;5015689;28;19921;-60
2022/05/27 07:26:01;;;;;;;;;;;;;;;;;;5015896;28;19931;-59
2022/05/27 07:28:27;;;;;;;;;;;;;;;;;;5015826;28;20020;-58
2022/05/27 07:30:55;;;;;;;;;;;;;;;;;;5015178;28;19973;-59
2022/05/27 07:33:22;;;;;;;;;;;;;;;;;;5015401;28;19983;-59
2022/05/27 07:35:49;;;;;;;;;;;;;;;;;;5015781;28;19943;-58
2022/05/27 07:38:18;;;;;;;;;;;;;;;;;;5015291;28;20021;-59
2022/05/27 07:40:44;;;;;;;;;;;;;;;;;;5015207;28;19960;-59
2022/05/27 07:43:12;;;;;;;;;;;;;;;;;;5015001;28;19921;-58
2022/05/27 07:45:40;;;;;;;;;;;;;;;;;;5015777;28;19925;-57
2022/05/27 07:48:08;;;;;;;;;;;;;;;;;;5015059;28;20012;-59
2022/05/27 07:50:34;;;;;;;;;;;;;;;;;;5015574;28;19925;-59
2022/05/27 07:53:01;;;;;;;;;;;;;;;;;;5014851;28;20034;-60
2022/05/27 07:55:29;;;;;;;;;;;;;;;;;;5015113;28;20008;-60
2022/05/27 07:57:56;;;;;;;;;;;;;;;;;;5014789;28;19925;-60
2022/05/27 08:00:24;;;;;;;;;;;;;;;;;;5015001;28;19929;-59
2022/05/27 08:02:51;;;;;;;;;;;;;;;;;;5014486;28;19928;-62
2022/05/27 08:05:19;;;;;;;;;;;;;;;;;;5014757;28;19921;-58
2022/05/27 08:07:46;;;;;;;;;;;;;;;;;;5015061;28;19921;-60
2022/05/27 08:10:14;;;;;;;;;;;;;;;;;;5014586;28;20306;-59
2022/05/27 08:12:42;;;;;;;;;;;;;;;;;;5014643;28;19922;-60
2022/05/27 08:15:09;;;;;;;;;;;;;;;;;;5015151;28;20015;-60
2022/05/27 08:17:36;;;;;;;;;;;;;;;;;;5014932;28;19927;-60
2022/05/27 08:20:03;;;;;;;;;;;;;;;;;;5014827;28;19921;-60
2022/05/27 08:22:30;;;;;;;;;;;;;;;;;;5014359;28;20344;-59
2022/05/27 08:24:56;;;;;;;;;;;;;;;;;;5013953;28;19928;-59
2022/05/27 08:27:23;;;;;;;;;;;;;;;;;;5014568;28;20012;-60
2022/05/27 08:29:51;;;;;;;;;;;;;;;;;;5014151;28;19975;-60
2022/05/27 08:32:18;;;;;;;;;;;;;;;;;;5014060;28;19921;-61
2022/05/27 08:40:20;;;;;;;;;;;;;;;;;;5014028;28;20018;-58
2022/05/27 08:42:52;;;;;;;;;;;;;;;;;;5013670;28;19935;-58
2022/05/27 08:45:22;;;;;;;;;;;;;;;;;;5014099;28;19960;-60
2022/05/27 08:47:52;;;;;;;;;;;;;;;;;;5013949;28;20391;-60
2022/05/27 08:50:23;;;;;;;;;;;;;;;;;;5013824;28;19961;-59
2022/05/27 08:52:52;;;;;;;;;;;;;;;;;;5013842;28;20283;-59
2022/05/27 09:00:57;;;;;;;;;;;;;;;;;;5013805;28;19928;-60
2022/05/27 09:03:24;;;;;;;;;;;;;;;;;;5013954;28;19933;-57
2022/05/27 09:05:55;;;;;;;;;;;;;;;;;;5014413;28;20289;-58
2022/05/27 09:08:23;;;;;;;;;;;;;;;;;;5013674;28;19925;-60
2022/05/27 09:10:57;;;;;;;;;;;;;;;;;;5013849;28;20012;-59
2022/05/27 09:13:28;;;;;;;;;;;;;;;;;;5013399;28;20016;-60
2022/05/27 09:15:56;;;;;;;;;;;;;;;;;;5013873;28;19989;-62
2022/05/27 09:18:29;;;;;;;;;;;;;;;;;;5013501;28;20375;-60
2022/05/27 09:21:06;;;;;;;;;;;;;;;;;;5013454;28;20267;-62
2022/05/27 09:23:40;;;;;;;;;;;;;;;;;;5013762;28;19921;-59
2022/05/27 09:26:11;;;;;;;;;;;;;;;;;;5013325;28;20294;-60
2022/05/27 09:28:44;;;;;;;;;;;;;;;;;;5013169;28;20176;-60
2022/05/27 09:31:12;;;;;;;;;;;;;;;;;;5013117;28;19921;-60
2022/05/27 09:33:41;;;;;;;;;;;;;;;;;;5013193;28;20008;-60
2022/05/27 09:36:10;;;;;;;;;;;;;;;;;;5013475;28;19921;-58
2022/05/27 09:38:39;;;;;;;;;;;;;;;;;;5013340;28;20293;-60
2022/05/27 09:41:09;;;;;;;;;;;;;;;;;;5013169;28;19922;-60
2022/05/27 09:43:40;;;;;;;;;;;;;;;;;;5013100;28;20397;-61
2022/05/27 09:46:07;;;;;;;;;;;;;;;;;;5013043;28;19971;-59
2022/05/27 09:48:34;;;;;;;;;;;;;;;;;;5013238;28;19921;-60
2022/05/27 09:51:03;;;;;;;;;;;;;;;;;;5012875;28;19921;-60
2022/05/27 09:53:31;;;;;;;;;;;;;;;;;;5012985;28;20330;-59
2022/05/27 09:56:02;;;;;;;;;;;;;;;;;;5012696;28;19922;-59
2022/05/27 09:58:30;;;;;;;;;;;;;;;;;;5012731;28;19921;-57
2022/05/27 10:00:57;;;;;;;;;;;;;;;;;;5012889;28;19929;-59
2022/05/27 10:03:33;;;;;;;;;;;;;;;;;;5013151;28;19937;-59
2022/05/27 10:06:03;;;;;;;;;;;;;;;;;;5013540;28;19922;-59
2022/05/27 10:08:32;;;;;;;;;;;;;;;;;;5013388;28;19921;-60
2022/05/27 10:11:16;;;;;;;;;;;;;;;;;;5012597;28;19929;-60
2022/05/27 10:13:43;;;;;;;;;;;;;;;;;;5012660;28;19944;-60
2022/05/27 10:16:12;;;;;;;;;;;;;;;;;;5012732;28;19921;-60
2022/05/27 10:18:38;;;;;;;;;;;;;;;;;;5012742;28;19928;-60
2022/05/27 10:21:15;;;;;;;;;;;;;;;;;;5012485;28;19921;-60
2022/05/27 10:23:43;;;;;;;;;;;;;;;;;;5012760;28;19921;-60
2022/05/27 10:26:23;;;;;;;;;;;;;;;;;;5012884;28;19925;-60
2022/05/27 10:28:57;;;;;;;;;;;;;;;;;;5012732;28;20289;-58
2022/05/27 10:31:24;;;;;;;;;;;;;;;;;;5012292;28;19971;-59
2022/05/27 10:33:51;;;;;;;;;;;;;;;;;;5012724;28;20355;-60
2022/05/27 10:36:38;;;;;;;;;;;;;;;;;;5012521;28;19932;-61
2022/05/27 10:39:09;;;;;;;;;;;;;;;;;;5012109;28;19999;-59
2022/05/27 10:41:49;;;;;;;;;;;;;;;;;;5012325;28;19968;-60
2022/05/27 10:44:26;;;;;;;;;;;;;;;;;;5012289;28;19921;-60
2022/05/27 10:46:54;;;;;;;;;;;;;;;;;;5012552;28;19944;-61
2022/05/27 10:49:35;;;;;;;;;;;;;;;;;;5015214;28;20020;-61
2022/05/27 10:52:10;;;;;;;;;;;;;;;;;;5015062;28;20390;-60
2022/05/27 10:54:44;;;;;;;;;;;;;;;;;;5015889;28;20306;-60
2022/05/27 11:02:59;;;;;;;;;;;;;;;;;;4996179;28;20425;-60
2022/05/27 11:05:32;;;;;;;;;;;;;;;;;;4996294;28;19921;-60
2022/05/27 11:08:09;;;;;;;;;;;;;;;;;;4996559;28;20439;-61
2022/05/27 11:10:43;;;;;;;;;;;;;;;;;;4996541;28;20398;-58
2022/05/27 11:16:28;;;;;;;;;;;;;;;;;;4958607;28;19929;-61
2022/05/27 11:19:02;;;;;;;;;;;;;;;;;;4996316;28;20398;-61
2022/05/27 11:21:47;;;;;;;;;;;;;;;;;;4995685;28;20303;-61
2022/05/27 11:24:27;;;;;;;;;;;;;;;;;;4996071;28;19944;-59
2022/05/27 11:27:01;;;;;;;;;;;;;;;;;;4995846;28;20292;-60
2022/05/27 11:29:39;;;;;;;;;;;;;;;;;;4996013;28;19937;-60
2022/05/27 11:32:11;;;;;;;;;;;;;;;;;;4995744;28;19968;-61
2022/05/27 11:34:44;;;;;;;;;;;;;;;;;;4995706;28;19937;-62
2022/05/27 11:37:32;;;;;;;;;;;;;;;;;;4995796;28;19928;-61
2022/05/27 11:40:07;;;;;;;;;;;;;;;;;;4994303;28;19989;-62
2022/05/27 11:42:52;;;;;;;;;;;;;;;;;;4995693;28;19926;-62
2022/05/27 11:45:21;;;;;;;;;;;;;;;;;;4996040;28;20371;-61
2022/05/27 11:48:06;;;;;;;;;;;;;;;;;;4996023;28;19985;-60
2022/05/27 11:50:55;;;;;;;;;;;;;;;;;;4995845;28;20333;-61
2022/05/27 11:53:36;;;;;;;;;;;;;;;;;;4995790;28;19929;-61
2022/05/27 11:56:07;;;;;;;;;;;;;;;;;;4995722;28;19977;-61
2022/05/27 11:58:40;;;;;;;;;;;;;;;;;;5003874;28;20272;-60
2022/05/27 12:01:11;;;;;;;;;;;;;;;;;;5013655;28;19921;-60
2022/05/27 12:03:41;;;;;;;;;;;;;;;;;;5014876;28;19922;-61
2022/05/27 12:06:10;;;;;;;;;;;;;;;;;;5015475;28;19921;-60
2022/05/27 12:08:39;;;;;;;;;;;;;;;;;;5015033;28;19928;-60
2022/05/27 12:11:09;;;;;;;;;;;;;;;;;;5014529;28;19921;-61
2022/05/27 12:13:37;;;;;;;;;;;;;;;;;;5016680;28;19922;-60
2022/05/27 12:16:06;;;;;;;;;;;;;;;;;;5015415;28;19926;-61
2022/05/27 12:18:36;;;;;;;;;;;;;;;;;;5015082;28;19921;-61
2022/05/27 12:21:06;;;;;;;;;;;;;;;;;;5014413;28;19938;-60
2022/05/27 12:23:34;;;;;;;;;;;;;;;;;;5014615;28;19922;-61
2022/05/27 12:26:01;;;;;;;;;;;;;;;;;;5014588;28;19922;-64
2022/05/27 12:28:30;;;;;;;;;;;;;;;;;;5014931;28;20306;-61
2022/05/27 12:30:57;;;;;;;;;;;;;;;;;;5013918;28;19921;-60
2022/05/27 12:33:26;;;;;;;;;;;;;;;;;;5014445;28;19921;-60
2022/05/27 12:35:57;;;;;;;;;;;;;;;;;;5014272;28;20378;-59
2022/05/27 12:38:25;;;;;;;;;;;;;;;;;;5014647;28;19921;-61
2022/05/27 12:40:52;;;;;;;;;;;;;;;;;;5014396;28;19929;-60
2022/05/27 12:43:24;;;;;;;;;;;;;;;;;;5014390;28;19921;-60
2022/05/27 12:45:53;;;;;;;;;;;;;;;;;;5016068;28;20004;-60
2022/05/27 12:48:28;;;;;;;;;;;;;;;;;;5015938;28;19968;-62
2022/05/27 12:50:57;;;;;;;;;;;;;;;;;;5014000;28;19933;-61
2022/05/27 12:53:36;;;;;;;;;;;;;;;;;;5014111;28;19969;-61
2022/05/27 13:02:33;;;;;;;;;;;;;;;;;;5013469;28;19987;-61
2022/05/27 13:05:01;;;;;;;;;;;;;;;;;;5013488;28;20353;-59
2022/05/27 13:07:44;;;;;;;;;;;;;;;;;;5013801;28;19921;-59
2022/05/27 13:10:29;;;;;;;;;;;;;;;;;;5013686;28;20299;-60
2022/05/27 13:13:01;;;;;;;;;;;;;;;;;;5013173;28;19921;-61
2022/05/27 13:15:31;;;;;;;;;;;;;;;;;;5013771;28;19921;-60
2022/05/27 13:18:08;;;;;;;;;;;;;;;;;;5013965;28;19921;-60
2022/05/27 13:20:42;;;;;;;;;;;;;;;;;;5013387;28;19921;-61
2022/05/27 13:23:13;;;;;;;;;;;;;;;;;;5013363;28;20291;-61
2022/05/27 13:25:43;;;;;;;;;;;;;;;;;;5013660;28;20390;-60
2022/05/27 13:28:11;;;;;;;;;;;;;;;;;;5013655;28;19921;-58
2022/05/27 13:30:57;;;;;;;;;;;;;;;;;;5013275;28;19925;-61
2022/05/27 13:33:25;;;;;;;;;;;;;;;;;;5013348;28;20378;-59
2022/05/27 13:35:52;;;;;;;;;;;;;;;;;;5013309;28;19922;-61
2022/05/27 13:38:23;;;;;;;;;;;;;;;;;;5013195;28;19929;-61
2022/05/27 13:40:50;;;;;;;;;;;;;;;;;;5013179;28;19987;-61
2022/05/27 13:43:18;;;;;;;;;;;;;;;;;;5013154;28;20289;-61
2022/05/27 13:45:47;;;;;;;;;;;;;;;;;;5013094;28;20382;-62
2022/05/27 13:48:15;;;;;;;;;;;;;;;;;;5013054;28;19927;-61
2022/05/27 13:50:43;;;;;;;;;;;;;;;;;;5012972;28;19943;-60
2022/05/27 13:53:18;;;;;;;;;;;;;;;;;;5012922;28;19976;-61
2022/05/27 13:55:46;;;;;;;;;;;;;;;;;;5012978;28;19928;-60
2022/05/27 13:58:13;;;;;;;;;;;;;;;;;;5012792;28;19921;-60
2022/05/27 14:00:42;;;;;;;;;;;;;;;;;;5012697;28;19947;-59
2022/05/27 14:03:09;;;;;;;;;;;;;;;;;;5012824;28;19921;-59
2022/05/27 14:05:36;;;;;;;;;;;;;;;;;;5012985;28;20027;-61
2022/05/27 14:08:04;;;;;;;;;;;;;;;;;;5012649;28;19921;-61
2022/05/27 14:10:32;;;;;;;;;;;;;;;;;;5012391;28;19936;-61
2022/05/27 14:13:14;;;;;;;;;;;;;;;;;;5012535;28;19970;-62
2022/05/27 14:15:41;;;;;;;;;;;;;;;;;;5012827;28;19925;-63
2022/05/27 14:18:08;;;;;;;;;;;;;;;;;;5012582;28;19929;-61
2022/05/27 14:22:39;;;;;;;;;;;;;;;;;;5012419;28;20003;-61
2022/05/27 14:23:24;;;;;;;;;;;;;;;;;;5013843;28;19933;-61
2022/05/27 14:25:53;;;;;;;;;;;;;;;;;;5016756;28;19967;-62
2022/05/27 14:28:23;;;;;;;;;;;;;;;;;;5016552;28;19921;-63
2022/05/27 14:30:51;;;;;;;;;;;;;;;;;;5016713;28;19922;-61
2022/05/27 14:33:23;;;;;;;;;;;;;;;;;;5016299;28;19928;-59
2022/05/27 14:35:50;;;;;;;;;;;;;;;;;;5016335;28;19925;-61
2022/05/27 14:38:19;;;;;;;;;;;;;;;;;;5016370;28;20012;-61
2022/05/27 14:40:46;;;;;;;;;;;;;;;;;;5016004;28;19941;-61
2022/05/27 14:43:21;;;;;;;;;;;;;;;;;;5016116;28;20011;-60
2022/05/27 14:45:54;;;;;;;;;;;;;;;;;;5016558;28;19975;-61
2022/05/27 14:48:24;;;;;;;;;;;;;;;;;;5016094;28;20183;-60
2022/05/27 14:50:51;;;;;;;;;;;;;;;;;;5015834;28;19980;-61
2022/05/27 14:53:19;;;;;;;;;;;;;;;;;;5016113;28;20283;-63
2022/05/27 14:55:47;;;;;;;;;;;;;;;;;;5016095;28;20099;-61
2022/05/27 14:58:15;;;;;;;;;;;;;;;;;;5015869;28;20314;-60
2022/05/27 15:00:44;;;;;;;;;;;;;;;;;;5015831;28;19921;-61
2022/05/27 15:03:26;;;;;;;;;;;;;;;;;;5015629;28;19921;-60
2022/05/27 15:05:53;;;;;;;;;;;;;;;;;;5015896;28;19928;-60
2022/05/27 15:08:31;;;;;;;;;;;;;;;;;;5015899;28;19921;-59
2022/05/27 15:11:08;;;;;;;;;;;;;;;;;;5015348;28;19921;-62
2022/05/27 15:13:44;;;;;;;;;;;;;;;;;;5015755;28;20271;-61
2022/05/27 15:16:12;;;;;;;;;;;;;;;;;;5017855;28;19922;-61
2022/05/27 15:18:44;;;;;;;;;;;;;;;;;;5021088;28;19922;-63
2022/05/27 15:21:13;;;;;;;;;;;;;;;;;;5015796;28;19921;-63
2022/05/27 15:23:47;;;;;;;;;;;;;;;;;;5019385;28;19921;-65
2022/05/27 15:34:35;;;;;;;;;;;;;;;;;;5015586;28;19929;-64
2022/05/27 15:37:01;;;;;;;;;;;;;;;;;;5016173;28;19922;-64
2022/05/27 15:39:28;;;;;;;;;;;;;;;;;;5015598;28;19928;-64
2022/05/27 15:41:55;;;;;;;;;;;;;;;;;;5015540;28;19932;-63
2022/05/27 15:44:21;;;;;;;;;;;;;;;;;;5015801;28;20428;-63
2022/05/27 15:46:48;;;;;;;;;;;;;;;;;;5015620;28;19969;-63
2022/05/27 15:49:15;;;;;;;;;;;;;;;;;;5015477;28;19928;-65
2022/05/27 15:51:44;;;;;;;;;;;;;;;;;;5015402;28;19921;-64
2022/05/27 15:54:12;;;;;;;;;;;;;;;;;;5015970;28;19921;-65
2022/05/27 15:56:39;;;;;;;;;;;;;;;;;;5015995;28;20382;-63
2022/05/27 15:59:06;;;;;;;;;;;;;;;;;;5015252;28;19925;-65
2022/05/27 16:01:33;;;;;;;;;;;;;;;;;;5015107;28;19922;-65
2022/05/27 16:04:01;;;;;;;;;;;;;;;;;;5015328;28;20004;-64
2022/05/27 16:06:29;;;;;;;;;;;;;;;;;;5015390;28;19973;-64
2022/05/27 16:08:57;;;;;;;;;;;;;;;;;;5015569;28;19968;-64
2022/05/27 16:11:25;;;;;;;;;;;;;;;;;;5014780;28;20012;-63
2022/05/27 16:13:52;;;;;;;;;;;;;;;;;;5015190;28;19921;-64
2022/05/27 16:19:03;;;;;;;;;;;;;;;;;;5015071;28;20028;-63
2022/05/27 16:21:31;;;;;;;;;;;;;;;;;;5014857;28;19921;-64
2022/05/27 16:23:59;;;;;;;;;;;;;;;;;;5014730;28;19944;-64
2022/05/27 16:26:26;;;;;;;;;;;;;;;;;;5015596;28;19922;-64
2022/05/27 16:28:53;;;;;;;;;;;;;;;;;;5015507;28;19921;-63
2022/05/27 16:31:22;;;;;;;;;;;;;;;;;;5014599;28;20164;-64
2022/05/27 16:33:49;;;;;;;;;;;;;;;;;;5026971;22;19921;-59
2022/05/27 16:36:16;;;;;;;;;;;;;;;;;;4994380;28;19928;-61
2022/05/27 16:38:43;;;;;;;;;;;;;;;;;;4994385;28;19961;-59
2022/05/27 16:41:11;;;;;;;;;;;;;;;;;;4994366;28;19921;-60
2022/05/27 16:43:38;;;;;;;;;;;;;;;;;;4994216;28;19964;-61
2022/05/27 16:46:05;;;;;;;;;;;;;;;;;;4994161;28;19932;-59
2022/05/27 16:48:32;;;;;;;;;;;;;;;;;;4994130;28;19922;-59
2022/05/27 16:50:59;;;;;;;;;;;;;;;;;;4994681;28;19972;-59
2022/05/27 16:53:25;;;;;;;;;;;;;;;;;;4994415;28;19925;-59
2022/05/27 16:55:52;;;;;;;;;;;;;;;;;;4994964;28;19921;-59
2022/05/27 16:58:20;;;;;;;;;;;;;;;;;;4994976;28;19921;-59
2022/05/27 17:00:47;;;;;;;;;;;;;;;;;;4994325;28;19929;-59
2022/05/27 17:03:13;;;;;;;;;;;;;;;;;;4994306;28;20291;-61
2022/05/27 17:05:40;;;;;;;;;;;;;;;;;;4994593;28;20289;-60
2022/05/27 17:08:07;;;;;;;;;;;;;;;;;;4994616;28;19984;-59
2022/05/27 17:10:33;;;;;;;;;;;;;;;;;;4994231;28;19921;-58
2022/05/27 17:13:00;;;;;;;;;;;;;;;;;;4994018;28;19944;-60
2022/05/27 17:15:29;;;;;;;;;;;;;;;;;;4993992;28;19922;-61
2022/05/27 17:17:57;;;;;;;;;;;;;;;;;;4993982;28;19932;-61
2022/05/27 17:20:24;;;;;;;;;;;;;;;;;;4993600;28;19928;-59
2022/05/27 17:22:51;;;;;;;;;;;;;;;;;;4993585;28;20325;-59
2022/05/27 17:25:18;;;;;;;;;;;;;;;;;;4993461;28;19922;-59
2022/05/27 17:27:45;;;;;;;;;;;;;;;;;;4994675;28;19922;-59
2022/05/27 17:30:12;;;;;;;;;;;;;;;;;;4993890;28;20291;-58
2022/05/27 17:32:40;;;;;;;;;;;;;;;;;;4993952;28;20004;-59
2022/05/27 17:35:07;;;;;;;;;;;;;;;;;;4951921;28;1204344;-60
2022/05/27 17:37:34;;;;;;;;;;;;;;;;;;4994102;28;19921;-59
2022/05/27 17:40:03;;;;;;;;;;;;;;;;;;4994606;28;19939;-58
2022/05/27 17:42:29;;;;;;;;;;;;;;;;;;4994184;28;19921;-60
2022/05/27 17:44:56;;;;;;;;;;;;;;;;;;4994131;28;19926;-59
2022/05/27 17:52:52;;;;;;;;;;;;;;;;;;4994108;28;19996;-59
2022/05/27 17:55:19;;;;;;;;;;;;;;;;;;4994378;28;19922;-59